Wetterdaten: Woche 15.05.17 - 21.05.17 (KW20)
Datum Zeit Temp. Aussen Temp. o. S. +5cm Feuchte Auss BlattFeu 1 Luftdruck Regen Sonnenschein Regendauer Solar Windben Empfang
15.05.2017 00:00 14,2 C 12,5 C 10,6 C 73 % 0 lf 1024,5 hPa 0,0 l/m 0,00 h 0,00 h 0 W/m 0,2 km/h (0 Bft) 96,11 %
15.05.2017 01:00 13,1 C 12,2 C 11,1 C 78 % 0 lf 1025,0 hPa 0,0 l/m 0,00 h 0,00 h 0 W/m 0,0 km/h (0 Bft) 95,66 %
15.05.2017 02:00 12,7 C 12,5 C 11,3 C 78 % 0 lf 1025,5 hPa 0,0 l/m 0,00 h 0,00 h 0 W/m 4,1 km/h (1 Bft) 97,51 %
15.05.2017 03:00 12,5 C 12,6 C 11,1 C 75 % 0 lf 1025,9 hPa 0,0 l/m 0,00 h 0,00 h 0 W/m 1,5 km/h (1 Bft) 95,16 %
15.05.2017 04:00 12,4 C 11,1 C 9,6 C 75 % 0 lf 1026,1 hPa 0,0 l/m 0,00 h 0,00 h 0 W/m 1,6 km/h (1 Bft) 96,32 %
15.05.2017 05:00 11,1 C 9,5 C 7,8 C 79 % 0 lf 1026,5 hPa 0,0 l/m 0,00 h 0,00 h 7 W/m 2,2 km/h (1 Bft) 96,44 %
15.05.2017 06:00 10,1 C 10,1 C 8,3 C 83 % 0 lf 1026,9 hPa 0,0 l/m 0,00 h 0,00 h 34 W/m 1,3 km/h (1 Bft) 98,36 %
15.05.2017 07:00 10,4 C 12,2 C 10,0 C 86 % 0 lf 1027,4 hPa 0,0 l/m 0,83 h 0,00 h 138 W/m 5,7 km/h (1 Bft) 93,76 %
15.05.2017 08:00 12,7 C 19,1 C 12,0 C 85 % 0 lf 1027,7 hPa 0,0 l/m 1,00 h 0,00 h 273 W/m 9,9 km/h (2 Bft) 95,89 %
15.05.2017 09:00 16,5 C 26,0 C 15,7 C 73 % 0 lf 1028,0 hPa 0,0 l/m 1,00 h 0,00 h 427 W/m 10,4 km/h (2 Bft) 97,94 %
15.05.2017 10:00 18,6 C 27,6 C 24,2 C 64 % 0 lf 1028,6 hPa 0,0 l/m 1,00 h 0,00 h 575 W/m 13,4 km/h (3 Bft) 96,90 %
15.05.2017 11:00 20,1 C 29,0 C 25,1 C 57 % 0 lf 1028,7 hPa 0,0 l/m 1,00 h 0,00 h 937 W/m 13,4 km/h (3 Bft) 94,04 %
15.05.2017 12:00 20,7 C 28,8 C 25,3 C 52 % 0 lf 1028,6 hPa 0,0 l/m 1,00 h 0,00 h 905 W/m 14,4 km/h (3 Bft) 97,54 %
15.05.2017 13:00 21,8 C 30,4 C 22,6 C 47 % 0 lf 1028,4 hPa 0,0 l/m 1,00 h 0,00 h 1065 W/m 14,6 km/h (3 Bft) 96,62 %
15.05.2017 14:00 22,1 C 29,2 C 30,3 C 45 % 0 lf 1028,2 hPa 0,0 l/m 1,00 h 0,00 h 807 W/m 12,3 km/h (3 Bft) 95,97 %
15.05.2017 15:00 22,8 C 29,3 C 33,2 C 38 % 0 lf 1027,9 hPa 0,0 l/m 1,00 h 0,00 h 763 W/m 14,2 km/h (3 Bft) 96,11 %
15.05.2017 16:00 23,0 C 26,8 C 27,1 C 37 % 0 lf 1027,5 hPa 0,0 l/m 1,00 h 0,00 h 656 W/m 10,0 km/h (2 Bft) 97,28 %
15.05.2017 17:00 22,9 C 23,2 C 21,4 C 37 % 0 lf 1027,1 hPa 0,0 l/m 1,00 h 0,00 h 522 W/m 8,6 km/h (2 Bft) 94,34 %
15.05.2017 18:00 22,2 C 22,6 C 19,9 C 41 % 0 lf 1026,9 hPa 0,0 l/m 1,00 h 0,00 h 343 W/m 8,7 km/h (2 Bft) 96,36 %
15.05.2017 19:00 21,4 C 21,2 C 18,7 C 44 % 0 lf 1026,8 hPa 0,0 l/m 0,97 h 0,00 h 184 W/m 6,4 km/h (2 Bft) 98,21 %
15.05.2017 20:00 20,5 C 19,5 C 16,6 C 50 % 0 lf 1026,9 hPa 0,0 l/m 0,07 h 0,00 h 33 W/m 2,9 km/h (1 Bft) 93,80 %
15.05.2017 21:00 19,2 C 18,4 C 15,7 C 57 % 0 lf 1027,1 hPa 0,0 l/m 0,00 h 0,00 h 6 W/m 3,2 km/h (1 Bft) 97,22 %
15.05.2017 22:00 18,3 C 18,3 C 15,9 C 59 % 0 lf 1027,4 hPa 0,0 l/m 0,00 h 0,00 h 0 W/m 4,2 km/h (1 Bft) 97,37 %
15.05.2017 23:00 18,0 C 17,8 C 15,7 C 60 % 0 lf 1027,3 hPa 0,0 l/m 0,00 h 0,03 h 0 W/m 4,9 km/h (1 Bft) 94,72 %
16.05.2017 00:00 17,7 C 17,3 C 15,0 C 61 % 0 lf 1027,3 hPa 0,0 l/m 0,00 h 0,00 h 0 W/m 2,8 km/h (1 Bft) 95,34 %
16.05.2017 01:00 17,4 C 17,4 C 15,4 C 61 % 0 lf 1027,2 hPa 0,0 l/m 0,00 h 0,00 h 0 W/m 5,9 km/h (2 Bft) 97,79 %
16.05.2017 02:00 17,2 C 17,0 C 14,5 C 61 % 0 lf 1026,9 hPa 0,0 l/m 0,00 h 0,00 h 0 W/m 5,1 km/h (1 Bft) 96,23 %
16.05.2017 03:00 16,7 C 16,7 C 14,4 C 64 % 0 lf 1026,5 hPa 0,0 l/m 0,00 h 0,00 h 0 W/m 6,6 km/h (2 Bft) 95,01 %
16.05.2017 04:00 16,4 C 16,5 C 14,8 C 65 % 0 lf 1026,4 hPa 0,0 l/m 0,00 h 0,00 h 0 W/m 7,2 km/h (2 Bft) 96,45 %
16.05.2017 05:00 16,1 C 15,9 C 14,4 C 68 % 0 lf 1026,4 hPa 0,0 l/m 0,00 h 0,00 h 5 W/m 7,8 km/h (2 Bft) 97,08 %
16.05.2017 06:00 15,6 C 15,6 C 14,0 C 71 % 0 lf 1026,5 hPa 0,0 l/m 0,00 h 0,00 h 13 W/m 9,2 km/h (2 Bft) 96,58 %
16.05.2017 07:00 15,5 C 16,2 C 15,0 C 75 % 0 lf 1026,7 hPa 0,0 l/m 0,00 h 0,00 h 73 W/m 10,0 km/h (2 Bft) 94,76 %
16.05.2017 08:00 16,6 C 18,6 C 17,7 C 76 % 0 lf 1026,8 hPa 0,0 l/m 0,00 h 0,00 h 172 W/m 9,5 km/h (2 Bft) 97,44 %
16.05.2017 09:00 18,8 C 22,8 C 21,1 C 73 % 0 lf 1026,9 hPa 0,0 l/m 0,58 h 0,00 h 292 W/m 11,0 km/h (2 Bft) 98,90 %
16.05.2017 10:00 23,1 C 31,5 C 30,0 C 63 % 0 lf 1026,7 hPa 0,0 l/m 0,97 h 0,00 h 562 W/m 10,7 km/h (2 Bft) 97,12 %
16.05.2017 11:00 25,5 C 34,4 C 30,5 C 56 % 0 lf 1026,3 hPa 0,0 l/m 0,97 h 0,00 h 652 W/m 14,2 km/h (3 Bft) 97,37 %
16.05.2017 12:00 27,1 C 34,9 C 31,4 C 51 % 0 lf 1026,0 hPa 0,0 l/m 0,70 h 0,00 h 547 W/m 13,6 km/h (3 Bft) 95,05 %
16.05.2017 13:00 27,8 C 35,5 C 29,3 C 49 % 0 lf 1025,5 hPa 0,0 l/m 1,00 h 0,00 h 873 W/m 14,2 km/h (3 Bft) 97,37 %
16.05.2017 14:00 28,3 C 34,5 C 35,5 C 47 % 0 lf 1025,1 hPa 0,0 l/m 0,90 h 0,00 h 768 W/m 12,8 km/h (3 Bft) 95,97 %
16.05.2017 15:00 28,4 C 34,5 C 37,1 C 47 % 0 lf 1024,6 hPa 0,0 l/m 0,97 h 0,00 h 753 W/m 12,0 km/h (2 Bft) 94,11 %
16.05.2017 16:00 28,8 C 32,7 C 32,2 C 46 % 0 lf 1024,3 hPa 0,0 l/m 0,93 h 0,00 h 648 W/m 11,5 km/h (2 Bft) 98,04 %
16.05.2017 17:00 28,5 C 29,4 C 27,8 C 47 % 0 lf 1024,0 hPa 0,0 l/m 0,70 h 0,00 h 413 W/m 9,2 km/h (2 Bft) 96,01 %
16.05.2017 18:00 27,5 C 27,8 C 26,5 C 48 % 0 lf 1023,8 hPa 0,0 l/m 0,03 h 0,00 h 155 W/m 5,1 km/h (1 Bft) 94,45 %
16.05.2017 19:00 26,8 C 26,9 C 25,2 C 51 % 0 lf 1023,6 hPa 0,0 l/m 0,00 h 0,00 h 92 W/m 2,3 km/h (1 Bft) 97,82 %
16.05.2017 20:00 26,1 C 25,1 C 22,8 C 56 % 0 lf 1023,8 hPa 0,0 l/m 0,00 h 0,00 h 29 W/m 2,4 km/h (1 Bft) 97,79 %
16.05.2017 21:00 24,7 C 23,0 C 20,4 C 62 % 0 lf 1023,9 hPa 0,0 l/m 0,00 h 0,00 h 5 W/m 0,0 km/h (0 Bft) 93,18 %
16.05.2017 22:00 23,1 C 21,7 C 19,2 C 69 % 0 lf 1024,0 hPa 0,0 l/m 0,00 h 0,00 h 0 W/m 0,5 km/h (0 Bft) 98,48 %
16.05.2017 23:00 21,8 C 20,4 C 18,4 C 73 % 0 lf 1023,9 hPa 0,0 l/m 0,00 h 0,00 h 0 W/m 0,0 km/h (0 Bft) 96,38 %
17.05.2017 00:00 20,9 C 20,1 C 18,1 C 77 % 0 lf 1023,5 hPa 0,0 l/m 0,00 h 0,00 h 0 W/m 2,1 km/h (1 Bft) 91,47 %
17.05.2017 01:00 20,3 C 19,4 C 17,5 C 80 % 0 lf 1023,2 hPa 0,0 l/m 0,00 h 0,00 h 0 W/m 0,7 km/h (0 Bft) 96,66 %
17.05.2017 02:00 19,7 C 19,4 C 17,0 C 80 % 0 lf 1022,7 hPa 0,0 l/m 0,00 h 0,00 h 0 W/m 3,4 km/h (1 Bft) 97,02 %
17.05.2017 03:00 19,3 C 19,0 C 16,7 C 77 % 0 lf 1022,2 hPa 0,0 l/m 0,00 h 0,00 h 0 W/m 8,4 km/h (2 Bft) 97,15 %
17.05.2017 04:00 18,9 C 18,8 C 16,7 C 72 % 0 lf 1021,7 hPa 0,0 l/m 0,00 h 0,00 h 0 W/m 10,2 km/h (2 Bft) 90,84 %
17.05.2017 05:00 18,3 C 17,7 C 15,5 C 71 % 0 lf 1021,3 hPa 0,0 l/m 0,00 h 0,00 h 6 W/m 8,7 km/h (2 Bft) 66,19 %
17.05.2017 06:00 17,5 C 17,1 C 15,0 C 73 % 0 lf 1021,2 hPa 0,0 l/m 0,17 h 0,00 h 31 W/m 10,4 km/h (2 Bft) 67,50 %
17.05.2017 07:00 17,5 C 18,6 C 16,4 C 74 % 0 lf 1021,0 hPa 0,0 l/m 1,00 h 0,00 h 194 W/m 11,7 km/h (2 Bft) 68,66 %
17.05.2017 08:00 19,4 C 24,4 C 18,7 C 69 % 0 lf 1020,8 hPa 0,0 l/m 1,00 h 0,00 h 301 W/m 13,9 km/h (3 Bft) 55,44 %
17.05.2017 09:00 22,8 C 28,8 C 22,6 C 60 % 0 lf 1020,3 hPa 0,0 l/m 1,00 h 0,00 h 343 W/m 15,9 km/h (3 Bft) 36,66 %
17.05.2017 10:00 25,4 C 32,1 C 31,6 C 55 % 0 lf 1019,6 hPa 0,0 l/m 1,00 h 0,00 h 361 W/m 18,2 km/h (3 Bft) 35,18 %
17.05.2017 11:00 27,1 C 33,0 C 31,9 C 50 % 0 lf 1018,8 hPa 0,0 l/m 1,00 h 0,00 h 444 W/m 18,7 km/h (3 Bft) 29,45 %
17.05.2017 12:00 27,8 C 33,4 C 31,9 C 48 % 0 lf 1017,6 hPa 0,0 l/m 1,00 h 0,00 h 636 W/m 20,3 km/h (4 Bft) 75,01 %
17.05.2017 13:00 28,8 C 34,0 C 29,4 C 46 % 0 lf 1016,8 hPa 0,0 l/m 1,00 h 0,00 h 792 W/m 23,1 km/h (4 Bft) 95,32 %
17.05.2017 14:00 29,2 C 33,8 C 35,2 C 45 % 0 lf 1015,9 hPa 0,0 l/m 1,00 h 0,00 h 764 W/m 24,9 km/h (4 Bft) 96,64 %
17.05.2017 15:00 29,2 C 33,0 C 36,3 C 45 % 0 lf 1014,9 hPa 0,0 l/m 1,00 h 0,00 h 708 W/m 29,7 km/h (5 Bft) 95,29 %
17.05.2017 16:00 29,4 C 31,7 C 31,8 C 42 % 0 lf 1013,7 hPa 0,0 l/m 1,00 h 0,00 h 600 W/m 29,9 km/h (5 Bft) 95,56 %
17.05.2017 17:00 29,5 C 30,0 C 28,2 C 43 % 0 lf 1012,7 hPa 0,0 l/m 1,00 h 0,00 h 487 W/m 26,5 km/h (4 Bft) 97,31 %
17.05.2017 18:00 28,7 C 28,9 C 26,6 C 44 % 0 lf 1011,9 hPa 0,0 l/m 1,00 h 0,00 h 349 W/m 30,1 km/h (5 Bft) 96,02 %
17.05.2017 19:00 27,8 C 27,8 C 25,6 C 45 % 0 lf 1011,1 hPa 0,0 l/m 1,00 h 0,00 h 189 W/m 24,6 km/h (4 Bft) 95,46 %
17.05.2017 20:00 26,7 C 26,3 C 24,1 C 47 % 0 lf 1010,7 hPa 0,0 l/m 0,43 h 0,00 h 54 W/m 20,5 km/h (4 Bft) 98,50 %
17.05.2017 21:00 25,3 C 24,8 C 22,5 C 50 % 0 lf 1010,4 hPa 0,0 l/m 0,00 h 0,00 h 11 W/m 19,8 km/h (3 Bft) 94,44 %
17.05.2017 22:00 24,3 C 23,5 C 20,8 C 53 % 0 lf 1010,3 hPa 0,0 l/m 0,00 h 0,00 h 0 W/m 13,4 km/h (3 Bft) 96,11 %
17.05.2017 23:00 22,9 C 22,0 C 18,8 C 57 % 0 lf 1009,9 hPa 0,0 l/m 0,00 h 0,00 h 0 W/m 8,4 km/h (2 Bft) 96,65 %
18.05.2017 00:00 21,7 C 20,8 C 18,3 C 62 % 0 lf 1009,4 hPa 0,0 l/m 0,00 h 0,00 h 0 W/m 10,1 km/h (2 Bft) 96,45 %
18.05.2017 01:00 20,7 C 20,3 C 18,2 C 66 % 0 lf 1008,9 hPa 0,0 l/m 0,00 h 0,00 h 0 W/m 13,5 km/h (3 Bft) 95,09 %
18.05.2017 02:00 20,0 C 19,5 C 17,7 C 69 % 0 lf 1008,5 hPa 0,0 l/m 0,00 h 0,00 h 0 W/m 11,1 km/h (2 Bft) 95,94 %
18.05.2017 03:00 19,4 C 18,8 C 16,5 C 70 % 0 lf 1008,9 hPa 0,0 l/m 0,00 h 0,00 h 0 W/m 6,4 km/h (2 Bft) 97,54 %
18.05.2017 04:00 18,9 C 18,9 C 16,5 C 73 % 0 lf 1009,0 hPa 0,0 l/m 0,00 h 0,00 h 0 W/m 7,6 km/h (2 Bft) 94,53 %
18.05.2017 05:00 19,1 C 19,0 C 17,2 C 77 % 0 lf 1009,2 hPa 0,0 l/m 0,00 h 0,00 h 7 W/m 9,4 km/h (2 Bft) 95,50 %
18.05.2017 06:00 19,2 C 18,2 C 16,6 C 81 % 9 lf 1009,4 hPa 0,2 l/m 0,00 h 0,57 h 12 W/m 10,4 km/h (2 Bft) 98,70 %
18.05.2017 07:00 18,5 C 16,9 C 15,9 C 88 % 15 lf 1010,1 hPa 0,6 l/m 0,00 h 0,33 h 33 W/m 7,3 km/h (2 Bft) 94,97 %
18.05.2017 08:00 17,8 C 16,9 C 15,8 C 91 % 15 lf 1010,7 hPa 0,2 l/m 0,00 h 0,50 h 47 W/m 9,6 km/h (2 Bft) 95,60 %
18.05.2017 09:00 17,2 C 17,1 C 15,7 C 91 % 15 lf 1011,3 hPa 0,0 l/m 0,00 h 0,57 h 112 W/m 8,9 km/h (2 Bft) 97,87 %
18.05.2017 10:00 17,2 C 17,5 C 15,7 C 92 % 9 lf 1011,5 hPa 0,2 l/m 0,00 h 0,70 h 112 W/m 7,4 km/h (2 Bft) 96,23 %
18.05.2017 11:00 17,3 C 18,4 C 15,9 C 92 % 15 lf 1011,8 hPa 0,2 l/m 0,00 h 0,80 h 113 W/m 7,8 km/h (2 Bft) 94,78 %
18.05.2017 12:00 17,4 C 17,3 C 16,1 C 93 % 15 lf 1011,9 hPa 1,0 l/m 0,00 h 0,97 h 127 W/m 6,5 km/h (2 Bft) 98,01 %
18.05.2017 13:00 17,8 C 18,8 C 17,2 C 94 % 15 lf 1011,8 hPa 0,6 l/m 0,00 h 0,67 h 261 W/m 5,3 km/h (1 Bft) 94,83 %
18.05.2017 14:00 18,4 C 19,5 C 17,8 C 92 % 8 lf 1011,7 hPa 0,0 l/m 0,00 h 0,30 h 210 W/m 5,4 km/h (1 Bft) 97,44 %
18.05.2017 15:00 18,7 C 22,5 C 19,4 C 89 % 0 lf 1011,0 hPa 0,0 l/m 0,20 h 0,27 h 306 W/m 6,4 km/h (2 Bft) 95,73 %
18.05.2017 16:00 19,4 C 20,7 C 19,2 C 85 % 0 lf 1010,6 hPa 0,0 l/m 0,00 h 0,27 h 126 W/m 5,8 km/h (2 Bft) 95,23 %
18.05.2017 17:00 19,4 C 20,0 C 18,7 C 86 % 1 lf 1010,4 hPa 0,0 l/m 0,00 h 0,50 h 152 W/m 7,1 km/h (2 Bft) 98,31 %
18.05.2017 18:00 19,3 C 19,8 C 18,7 C 87 % 1 lf 1010,0 hPa 0,0 l/m 0,00 h 0,23 h 122 W/m 11,8 km/h (2 Bft) 96,78 %
18.05.2017 19:00 19,2 C 19,8 C 18,8 C 87 % 0 lf 1009,5 hPa 0,0 l/m 0,57 h 0,00 h 159 W/m 12,9 km/h (3 Bft) 93,96 %
18.05.2017 20:00 19,0 C 18,8 C 17,4 C 87 % 0 lf 1008,9 hPa 0,0 l/m 0,50 h 0,00 h 60 W/m 11,3 km/h (2 Bft) 98,78 %
18.05.2017 21:00 18,3 C 17,1 C 15,7 C 89 % 2 lf 1008,7 hPa 0,0 l/m 0,00 h 0,00 h 8 W/m 5,7 km/h (1 Bft) 97,16 %
18.05.2017 22:00 17,4 C 16,4 C 15,2 C 92 % 4 lf 1008,3 hPa 0,2 l/m 0,00 h 0,00 h 0 W/m 6,0 km/h (2 Bft) 93,54 %
18.05.2017 23:00 17,0 C 16,3 C 14,7 C 94 % 7 lf 1008,0 hPa 0,0 l/m 0,00 h 0,00 h 0 W/m 6,9 km/h (2 Bft) 97,41 %
19.05.2017 00:00 16,4 C 15,7 C 14,1 C 95 % 14 lf 1007,3 hPa 0,0 l/m 0,00 h 0,00 h 0 W/m 8,7 km/h (2 Bft) 94,03 %
19.05.2017 01:00 16,0 C 15,7 C 14,2 C 96 % 15 lf 1006,7 hPa 0,0 l/m 0,00 h 0,00 h 0 W/m 5,7 km/h (1 Bft) 93,32 %
19.05.2017 02:00 15,9 C 15,9 C 14,4 C 97 % 8 lf 1007,0 hPa 0,0 l/m 0,00 h 0,37 h 0 W/m 12,7 km/h (3 Bft) 97,25 %
19.05.2017 03:00 16,1 C 15,4 C 14,0 C 96 % 14 lf 1006,7 hPa 0,2 l/m 0,00 h 0,40 h 0 W/m 6,4 km/h (2 Bft) 96,41 %
19.05.2017 04:00 15,7 C 14,8 C 13,6 C 96 % 15 lf 1007,0 hPa 0,2 l/m 0,00 h 0,00 h 0 W/m 7,0 km/h (2 Bft) 97,02 %
19.05.2017 05:00 15,3 C 15,0 C 13,6 C 96 % 12 lf 1007,0 hPa 0,0 l/m 0,00 h 0,03 h 2 W/m 9,1 km/h (2 Bft) 96,61 %
19.05.2017 06:00 14,8 C 14,8 C 12,7 C 93 % 0 lf 1007,9 hPa 0,0 l/m 0,00 h 0,13 h 26 W/m 24,3 km/h (4 Bft) 96,35 %
19.05.2017 07:00 13,9 C 13,9 C 12,8 C 90 % 0 lf 1008,5 hPa 0,0 l/m 0,00 h 0,00 h 36 W/m 23,0 km/h (4 Bft) 96,04 %
19.05.2017 08:00 13,8 C 14,3 C 13,4 C 90 % 0 lf 1009,4 hPa 0,0 l/m 0,00 h 0,10 h 77 W/m 15,1 km/h (3 Bft) 98,79 %
19.05.2017 09:00 14,0 C 14,8 C 13,6 C 89 % 3 lf 1010,0 hPa 0,0 l/m 0,00 h 0,27 h 105 W/m 19,0 km/h (3 Bft) 93,17 %
19.05.2017 10:00 14,2 C 14,6 C 13,1 C 88 % 8 lf 1010,2 hPa 0,0 l/m 0,00 h 1,00 h 139 W/m 15,9 km/h (3 Bft) 96,78 %
19.05.2017 11:00 14,1 C 13,9 C 12,9 C 90 % 15 lf 1010,5 hPa 0,6 l/m 0,00 h 1,00 h 183 W/m 18,6 km/h (3 Bft) 98,09 %
19.05.2017 12:00 13,7 C 13,7 C 12,4 C 91 % 9 lf 1010,6 hPa 0,0 l/m 0,00 h 0,73 h 145 W/m 20,5 km/h (4 Bft) 93,42 %
19.05.2017 13:00 13,3 C 13,5 C 12,3 C 91 % 14 lf 1011,1 hPa 0,4 l/m 0,00 h 1,00 h 200 W/m 22,9 km/h (4 Bft) 94,53 %
19.05.2017 14:00 13,3 C 14,1 C 12,2 C 90 % 6 lf 1011,3 hPa 0,2 l/m 0,00 h 0,50 h 162 W/m 21,7 km/h (4 Bft) 98,04 %
19.05.2017 15:00 13,0 C 12,8 C 11,9 C 91 % 15 lf 1011,7 hPa 0,4 l/m 0,00 h 1,00 h 123 W/m 12,3 km/h (3 Bft) 95,30 %
19.05.2017 16:00 12,8 C 12,6 C 12,0 C 92 % 15 lf 1012,2 hPa 0,6 l/m 0,00 h 0,93 h 133 W/m 13,7 km/h (3 Bft) 97,09 %
19.05.2017 17:00 12,7 C 12,3 C 11,8 C 93 % 15 lf 1012,2 hPa 0,4 l/m 0,00 h 1,00 h 113 W/m 11,6 km/h (2 Bft) 96,13 %
19.05.2017 18:00 12,8 C 12,6 C 11,9 C 94 % 15 lf 1012,7 hPa 0,2 l/m 0,00 h 0,90 h 83 W/m 6,8 km/h (2 Bft) 95,48 %
19.05.2017 19:00 13,0 C 12,7 C 11,9 C 94 % 14 lf 1012,7 hPa 0,0 l/m 0,00 h 0,77 h 63 W/m 7,6 km/h (2 Bft) 97,18 %
19.05.2017 20:00 13,0 C 12,4 C 11,6 C 95 % 7 lf 1013,3 hPa 0,0 l/m 0,00 h 0,03 h 26 W/m 8,6 km/h (2 Bft) 96,10 %
19.05.2017 21:00 12,1 C 11,3 C 10,3 C 93 % 1 lf 1014,0 hPa 0,0 l/m 0,00 h 0,00 h 7 W/m 12,2 km/h (2 Bft) 95,24 %
19.05.2017 22:00 11,6 C 11,1 C 10,0 C 93 % 1 lf 1014,3 hPa 0,0 l/m 0,00 h 0,00 h 0 W/m 9,4 km/h (2 Bft) 96,65 %
19.05.2017 23:00 11,3 C 10,8 C 9,6 C 93 % 1 lf 1014,5 hPa 0,0 l/m 0,00 h 0,00 h 0 W/m 9,1 km/h (2 Bft) 97,22 %
20.05.2017 00:00 10,9 C 10,2 C 8,9 C 93 % 2 lf 1014,9 hPa 0,0 l/m 0,00 h 0,00 h 0 W/m 5,5 km/h (1 Bft) 93,44 %
20.05.2017 01:00 10,4 C 9,9 C 8,2 C 93 % 6 lf 1015,3 hPa 0,0 l/m 0,00 h 0,00 h 0 W/m 4,1 km/h (1 Bft) 95,04 %
20.05.2017 02:00 9,8 C 9,2 C 7,7 C 94 % 6 lf 1015,5 hPa 0,0 l/m 0,00 h 0,00 h 0 W/m 8,0 km/h (2 Bft) 96,01 %
20.05.2017 03:00 9,2 C 9,2 C 7,6 C 94 % 1 lf 1015,5 hPa 0,0 l/m 0,00 h 0,00 h 0 W/m 6,7 km/h (2 Bft) 98,15 %
20.05.2017 04:00 9,3 C 9,7 C 8,1 C 94 % 0 lf 1015,7 hPa 0,0 l/m 0,00 h 0,00 h 0 W/m 7,2 km/h (2 Bft) 95,72 %
20.05.2017 05:00 9,5 C 9,9 C 8,3 C 94 % 1 lf 1016,0 hPa 0,0 l/m 0,00 h 0,00 h 8 W/m 6,5 km/h (2 Bft) 95,79 %
20.05.2017 06:00 9,4 C 9,3 C 7,5 C 93 % 1 lf 1016,6 hPa 0,0 l/m 0,53 h 0,00 h 59 W/m 5,8 km/h (2 Bft) 96,71 %
20.05.2017 07:00 9,7 C 11,6 C 9,4 C 94 % 0 lf 1017,4 hPa 0,0 l/m 0,57 h 0,00 h 124 W/m 9,4 km/h (2 Bft) 95,12 %
20.05.2017 08:00 11,0 C 15,7 C 10,0 C 89 % 0 lf 1017,9 hPa 0,0 l/m 1,00 h 0,00 h 292 W/m 13,3 km/h (3 Bft) 98,97 %
20.05.2017 09:00 13,9 C 21,0 C 12,9 C 79 % 0 lf 1018,6 hPa 0,0 l/m 0,80 h 0,00 h 457 W/m 14,0 km/h (3 Bft) 95,86 %
20.05.2017 10:00 14,8 C 20,0 C 17,8 C 74 % 0 lf 1018,9 hPa 0,0 l/m 0,43 h 0,00 h 432 W/m 18,0 km/h (3 Bft) 94,37 %
20.05.2017 11:00 15,7 C 21,1 C 18,5 C 69 % 0 lf 1019,5 hPa 0,0 l/m 0,53 h 0,00 h 616 W/m 22,6 km/h (4 Bft) 99,08 %
20.05.2017 12:00 15,9 C 23,0 C 19,7 C 67 % 0 lf 1020,1 hPa 0,0 l/m 0,57 h 0,00 h 610 W/m 21,6 km/h (4 Bft) 94,33 %
20.05.2017 13:00 17,1 C 24,2 C 19,5 C 63 % 0 lf 1020,4 hPa 0,0 l/m 0,83 h 0,00 h 815 W/m 20,6 km/h (4 Bft) 95,62 %
20.05.2017 14:00 16,9 C 21,3 C 21,3 C 64 % 0 lf 1020,8 hPa 0,0 l/m 0,57 h 0,00 h 554 W/m 18,9 km/h (3 Bft) 96,99 %
20.05.2017 15:00 18,3 C 22,5 C 24,9 C 58 % 0 lf 1021,1 hPa 0,0 l/m 0,77 h 0,00 h 666 W/m 19,7 km/h (3 Bft) 95,55 %
20.05.2017 16:00 18,7 C 20,5 C 22,0 C 54 % 0 lf 1021,5 hPa 0,0 l/m 0,63 h 0,00 h 522 W/m 19,3 km/h (3 Bft) 97,37 %
20.05.2017 17:00 17,8 C 19,0 C 17,7 C 58 % 0 lf 1022,0 hPa 0,0 l/m 0,53 h 0,00 h 402 W/m 15,1 km/h (3 Bft) 95,24 %
20.05.2017 18:00 17,6 C 18,2 C 16,1 C 56 % 0 lf 1022,2 hPa 0,0 l/m 0,83 h 0,00 h 350 W/m 15,0 km/h (3 Bft) 96,26 %
20.05.2017 19:00 16,9 C 16,8 C 15,2 C 58 % 0 lf 1022,7 hPa 0,0 l/m 0,20 h 0,00 h 102 W/m 8,8 km/h (2 Bft) 97,16 %
20.05.2017 20:00 16,3 C 16,1 C 14,5 C 62 % 0 lf 1023,3 hPa 0,0 l/m 0,00 h 0,00 h 43 W/m 5,9 km/h (2 Bft) 95,17 %
20.05.2017 21:00 15,7 C 15,0 C 12,7 C 65 % 0 lf 1023,7 hPa 0,0 l/m 0,00 h 0,00 h 11 W/m 4,4 km/h (1 Bft) 97,01 %
20.05.2017 22:00 14,3 C 12,3 C 9,7 C 73 % 0 lf 1024,0 hPa 0,0 l/m 0,00 h 0,00 h 0 W/m 3,4 km/h (1 Bft) 95,72 %
20.05.2017 23:00 12,3 C 10,8 C 8,6 C 79 % 0 lf 1024,3 hPa 0,0 l/m 0,00 h 0,00 h 0 W/m 3,3 km/h (1 Bft) 94,37 %
21.05.2017 00:00 10,9 C 10,4 C 8,1 C 84 % 0 lf 1024,8 hPa 0,0 l/m 0,00 h 0,00 h 0 W/m 4,6 km/h (1 Bft) 98,15 %
21.05.2017 01:00 10,5 C 9,9 C 7,8 C 86 % 0 lf 1025,0 hPa 0,0 l/m 0,00 h 0,00 h 0 W/m 3,6 km/h (1 Bft) 95,96 %
21.05.2017 02:00 9,8 C 8,9 C 7,2 C 87 % 1 lf 1025,2 hPa 0,0 l/m 0,00 h 0,00 h 0 W/m 4,6 km/h (1 Bft) 93,03 %
21.05.2017 03:00 9,1 C 8,2 C 6,5 C 89 % 2 lf 1025,4 hPa 0,0 l/m 0,00 h 0,00 h 0 W/m 1,7 km/h (1 Bft) 97,68 %
21.05.2017 04:00 8,4 C 7,9 C 6,1 C 91 % 5 lf 1025,6 hPa 0,0 l/m 0,00 h 0,00 h 0 W/m 0,4 km/h (0 Bft) 95,82 %
21.05.2017 05:00 7,9 C 7,1 C 5,7 C 92 % 11 lf 1025,7 hPa 0,0 l/m 0,00 h 0,00 h 10 W/m 2,2 km/h (1 Bft) 96,51 %
21.05.2017 06:00 7,7 C 8,0 C 6,4 C 93 % 12 lf 1026,0 hPa 0,0 l/m 0,93 h 0,00 h 75 W/m 3,6 km/h (1 Bft) 93,81 %
21.05.2017 07:00 8,4 C 10,0 C 8,0 C 95 % 1 lf 1026,2 hPa 0,0 l/m 1,00 h 0,00 h 210 W/m 6,7 km/h (2 Bft) 96,85 %
21.05.2017 08:00 10,7 C 16,8 C 10,8 C 94 % 0 lf 1026,4 hPa 0,0 l/m 1,00 h 0,00 h 440 W/m 7,3 km/h (2 Bft) 95,48 %
21.05.2017 09:00 15,4 C 24,2 C 15,0 C 77 % 0 lf 1026,7 hPa 0,0 l/m 1,00 h 0,00 h 547 W/m 7,5 km/h (2 Bft) 97,46 %
21.05.2017 10:00 18,6 C 26,0 C 23,8 C 64 % 0 lf 1026,7 hPa 0,0 l/m 1,00 h 0,00 h 530 W/m 9,2 km/h (2 Bft) 95,09 %
21.05.2017 11:00 20,3 C 28,1 C 25,7 C 56 % 0 lf 1026,6 hPa 0,0 l/m 1,00 h 0,00 h 715 W/m 10,5 km/h (2 Bft) 96,51 %
21.05.2017 12:00 20,7 C 26,1 C 24,7 C 54 % 0 lf 1026,2 hPa 0,0 l/m 0,83 h 0,00 h 618 W/m 13,7 km/h (3 Bft) 98,01 %
21.05.2017 13:00 21,0 C 25,5 C 23,4 C 50 % 0 lf 1025,9 hPa 0,0 l/m 0,70 h 0,00 h 598 W/m 13,4 km/h (3 Bft) 92,89 %
21.05.2017 14:00 21,2 C 25,8 C 25,4 C 49 % 0 lf 1025,4 hPa 0,0 l/m 0,65 h 0,00 h 520 W/m 9,6 km/h (2 Bft) 98,60 %
21.05.2017 15:00 21,0 C 23,2 C 23,4 C 48 % 0 lf 1024,9 hPa 0,0 l/m 0,28 h 0,00 h 374 W/m 13,2 km/h (3 Bft) 95,92 %
21.05.2017 16:00 21,5 C 23,9 C 24,5 C 45 % 0 lf 1024,4 hPa 0,0 l/m 1,00 h 0,00 h 505 W/m 11,2 km/h (2 Bft) 94,62 %
21.05.2017 17:00 21,9 C 23,0 C 21,8 C 43 % 0 lf 1023,8 hPa 0,0 l/m 1,00 h 0,00 h 450 W/m 9,1 km/h (2 Bft) 97,24 %
21.05.2017 18:00 21,1 C 21,7 C 20,5 C 44 % 0 lf 1023,3 hPa 0,0 l/m 1,00 h 0,00 h 241 W/m 7,7 km/h (2 Bft) 96,34 %
21.05.2017 19:00 20,4 C 20,6 C 18,8 C 45 % 0 lf 1022,9 hPa 0,0 l/m 0,97 h 0,00 h 166 W/m 4,2 km/h (1 Bft) 95,11 %
21.05.2017 20:00 19,6 C 18,8 C 16,5 C 50 % 0 lf 1022,5 hPa 0,0 l/m 1,00 h 0,00 h 95 W/m 3,2 km/h (1 Bft) 96,50 %
21.05.2017 21:00 18,4 C 16,7 C 14,5 C 56 % 0 lf 1022,1 hPa 0,0 l/m 0,23 h 0,00 h 20 W/m 6,0 km/h (2 Bft) 96,47 %
21.05.2017 22:00 16,4 C 14,0 C 11,7 C 65 % 0 lf 1022,0 hPa 0,0 l/m 0,00 h 0,00 h 0 W/m 5,3 km/h (1 Bft) 95,66 %
21.05.2017 23:00 14,8 C 13,0 C 10,8 C 69 % 0 lf 1021,9 hPa 0,0 l/m 0,00 h 0,00 h 0 W/m 4,8 km/h (1 Bft) 95,40 %
Min-Datum _ 21.05.17 21.05.17 21.05.17 15.05.17 15.05.17 19.05.17 - - - - 15.05.17 17.05.17
_ Min-Zeit 05:50 05:28 04:56 16:37 00:00 03:20 - - - - 00:06 08:42
Minimum _ 7,6 C 6,7 C 5,6 C 34 % 0 lf 1006,3 hPa - - - - 0,0 km/h (0 Bft) 2,86 %
Max-Datum _ 17.05.17 16.05.17 16.05.17 19.05.17 18.05.17 15.05.17 18.05.17 16.05.17 19.05.17 20.05.17 17.05.17 15.05.17
_ Max-Zeit 17:10 12:32 15:12 02:18 06:26 10:44 12:16 09:10 17:46 13:18 18:42 00:38
Maximum _ 29,8 C 38,9 C 38,9 C 97 % 15 lf 1028,8 hPa 1,0 l/m 0,08 h 0,07 h 1185 W/m 43,9 km/h
O-SO (6 Bft)
100,00 %
Durchschnitt _ 18,0 C 19,4 C 17,5 C 71 % 2 lf 1019,2 hPa #6,4 l/m #57:53 h #16:52 h 301 W/m 10,2 km/h (2 Bft) 94,14 %
© 2017 W. Hausmann